createdAt,value
2023-05-21T00:00:11.232Z,22.05
2023-05-21T00:02:38.412Z,21.95
2023-05-21T00:05:05.417Z,22.02
2023-05-21T00:07:33.218Z,22.01
2023-05-21T00:10:00.332Z,22.01
2023-05-21T00:12:26.972Z,22.04
2023-05-21T00:14:53.584Z,21.95
2023-05-21T00:17:20.197Z,22.00
2023-05-21T00:19:46.800Z,22.09
2023-05-21T00:22:14.296Z,22.03
2023-05-21T00:24:40.928Z,21.99
2023-05-21T00:27:07.498Z,22.00
2023-05-21T00:29:34.090Z,21.99
2023-05-21T00:32:01.126Z,21.93
2023-05-21T00:34:27.777Z,22.01
2023-05-21T00:36:55.584Z,21.90
2023-05-21T00:39:22.177Z,21.92
2023-05-21T00:41:50.547Z,21.98
2023-05-21T00:44:18.368Z,21.92
2023-05-21T00:46:45.298Z,21.99
2023-05-21T00:49:15.286Z,21.96
2023-05-21T00:51:41.877Z,21.93
2023-05-21T00:54:09.118Z,21.96
2023-05-21T00:56:35.954Z,21.95
2023-05-21T00:59:05.577Z,21.94
2023-05-21T01:01:38.851Z,21.91
2023-05-21T01:04:08.048Z,21.96
2023-05-21T01:06:34.907Z,21.88
2023-05-21T01:09:05.193Z,21.88
2023-05-21T01:11:41.797Z,21.88
2023-05-21T01:14:12.694Z,21.88
2023-05-21T01:16:42.969Z,21.87
2023-05-21T01:19:12.548Z,21.85
2023-05-21T01:21:42.171Z,21.88
2023-05-21T01:24:08.761Z,21.87
2023-05-21T01:26:43.982Z,21.87
2023-05-21T01:29:13.295Z,21.87
2023-05-21T01:32:16.707Z,21.89
2023-05-21T01:34:53.955Z,21.87
2023-05-21T01:37:50.022Z,21.89
2023-05-21T01:40:24.077Z,21.88
2023-05-21T01:42:51.613Z,21.74
2023-05-21T01:45:18.390Z,21.82
2023-05-21T01:47:49.735Z,21.87
2023-05-21T01:50:18.456Z,21.83
2023-05-21T01:52:58.594Z,21.77
2023-05-21T01:55:25.405Z,21.74
2023-05-21T01:57:53.510Z,21.73
2023-05-21T02:00:24.218Z,21.73
2023-05-21T02:02:51.790Z,21.77
2023-05-21T02:05:18.543Z,21.83
2023-05-21T02:07:46.132Z,21.72
2023-05-21T02:10:13.022Z,21.67
2023-05-21T02:12:39.717Z,21.78
2023-05-21T02:15:07.674Z,21.75
2023-05-21T02:17:34.392Z,21.71
2023-05-21T02:20:13.607Z,21.73
2023-05-21T02:22:41.617Z,21.74
2023-05-21T02:25:09.294Z,21.77
2023-05-21T02:27:36.726Z,21.78
2023-05-21T02:30:04.843Z,21.76
2023-05-21T02:32:34.985Z,21.76
2023-05-21T02:35:04.485Z,21.64
2023-05-21T02:37:34.657Z,21.70
2023-05-21T02:40:03.576Z,21.71
2023-05-21T02:42:30.405Z,21.62
2023-05-21T02:44:57.016Z,21.73
2023-05-21T02:47:23.944Z,21.71
2023-05-21T02:49:52.705Z,21.64
2023-05-21T02:52:20.359Z,21.60
2023-05-21T02:54:47.496Z,21.68
2023-05-21T02:57:14.124Z,21.64
2023-05-21T02:59:40.701Z,21.62
2023-05-21T03:02:09.766Z,21.67
2023-05-21T03:04:39.234Z,21.62
2023-05-21T03:07:06.295Z,21.63
2023-05-21T03:09:32.909Z,21.64
2023-05-21T03:11:59.495Z,21.67
2023-05-21T03:14:26.101Z,21.69
2023-05-21T03:16:52.761Z,21.60
2023-05-21T03:19:20.877Z,21.61
2023-05-21T03:21:49.081Z,21.59
2023-05-21T03:24:17.244Z,21.54
2023-05-21T03:26:43.843Z,21.56
2023-05-21T03:29:10.432Z,21.58
2023-05-21T03:31:37.078Z,21.49
2023-05-21T03:34:03.682Z,21.53
2023-05-21T03:36:35.627Z,21.54
2023-05-21T03:39:02.235Z,21.53
2023-05-21T03:41:28.818Z,21.56
2023-05-21T03:43:55.867Z,21.51
2023-05-21T03:46:22.517Z,21.48
2023-05-21T03:48:49.749Z,21.50
2023-05-21T03:51:18.059Z,21.54
2023-05-21T03:53:44.672Z,21.50
2023-05-21T03:56:11.254Z,21.52
2023-05-21T03:58:39.270Z,21.52
2023-05-21T04:01:06.142Z,21.54
2023-05-21T04:03:36.712Z,21.50
2023-05-21T04:06:04.626Z,21.56
2023-05-21T04:08:31.246Z,21.47
2023-05-21T04:10:57.902Z,21.53
2023-05-21T04:13:24.494Z,21.56
2023-05-21T04:15:51.157Z,21.62
2023-05-21T04:18:17.861Z,21.51
2023-05-21T04:20:44.496Z,21.53
2023-05-21T04:23:11.127Z,21.49
2023-05-21T04:25:38.716Z,21.51
2023-05-21T04:28:05.300Z,21.42
2023-05-21T04:30:35.556Z,21.44
2023-05-21T04:33:03.182Z,21.49
2023-05-21T04:35:29.865Z,21.43
2023-05-21T04:37:56.741Z,21.47
2023-05-21T04:40:24.442Z,21.33
2023-05-21T04:42:51.318Z,21.39
2023-05-21T04:45:18.023Z,21.46
2023-05-21T04:47:44.661Z,21.37
2023-05-21T04:50:11.923Z,21.40
2023-05-21T04:52:40.317Z,21.40
2023-05-21T04:55:07.923Z,21.45
2023-05-21T04:57:35.201Z,21.34
2023-05-21T05:00:01.977Z,21.50
2023-05-21T05:02:28.627Z,21.41
2023-05-21T05:04:55.389Z,21.45
2023-05-21T05:07:25.088Z,21.40
2023-05-21T05:09:51.704Z,21.43
2023-05-21T05:12:18.324Z,21.37
2023-05-21T05:14:44.967Z,21.37
2023-05-21T05:17:14.662Z,21.44
2023-05-21T05:19:41.273Z,21.33
2023-05-21T05:22:07.838Z,21.31
2023-05-21T05:24:34.421Z,21.29
2023-05-21T05:27:01.048Z,21.24
2023-05-21T05:29:28.457Z,21.24
2023-05-21T05:31:55.086Z,21.21
2023-05-21T05:34:23.253Z,21.33
2023-05-21T05:36:49.903Z,21.33
2023-05-21T05:39:16.623Z,21.33
2023-05-21T05:41:43.248Z,21.33
2023-05-21T05:44:11.006Z,21.35
2023-05-21T05:46:37.906Z,21.33
2023-05-21T05:49:04.631Z,21.40
2023-05-21T05:51:31.689Z,21.41
2023-05-21T05:53:58.365Z,21.33
2023-05-21T05:56:25.012Z,21.31
2023-05-21T05:58:51.585Z,21.30
2023-05-21T06:01:19.242Z,21.38
2023-05-21T06:03:46.118Z,21.14
2023-05-21T06:06:13.190Z,21.22
2023-05-21T06:08:40.716Z,21.27
2023-05-21T06:11:07.354Z,21.28
2023-05-21T06:13:33.966Z,21.21
2023-05-21T06:16:00.641Z,21.27
2023-05-21T06:18:30.132Z,21.12
2023-05-21T06:21:00.999Z,21.24
2023-05-21T06:23:36.537Z,21.36
2023-05-21T06:26:05.401Z,21.33
2023-05-21T06:28:32.049Z,21.31
2023-05-21T06:30:58.739Z,21.30
2023-05-21T06:33:28.314Z,21.35
2023-05-21T06:36:30.026Z,21.40
2023-05-21T06:38:57.169Z,21.36
2023-05-21T06:41:26.755Z,21.30
2023-05-21T06:43:54.806Z,21.28
2023-05-21T06:46:21.564Z,21.23
2023-05-21T06:48:52.519Z,21.27
2023-05-21T06:51:19.106Z,21.22
2023-05-21T06:53:45.736Z,21.20
2023-05-21T06:56:13.080Z,21.28
2023-05-21T06:58:39.704Z,21.14
2023-05-21T07:01:08.974Z,21.11
2023-05-21T07:03:38.611Z,21.06
2023-05-21T07:06:08.233Z,21.08
2023-05-21T07:08:46.117Z,21.02
2023-05-21T07:11:12.697Z,21.16
2023-05-21T07:13:39.276Z,21.12
2023-05-21T07:16:06.276Z,21.12
2023-05-21T07:18:35.690Z,21.22
2023-05-21T07:21:03.081Z,21.10
2023-05-21T07:23:29.689Z,21.10
2023-05-21T07:25:56.306Z,21.02
2023-05-21T07:28:22.913Z,21.10
2023-05-21T07:30:49.547Z,21.09
2023-05-21T07:33:17.903Z,21.09
2023-05-21T07:35:45.300Z,21.10
2023-05-21T07:38:11.908Z,21.08
2023-05-21T07:40:38.488Z,21.08
2023-05-21T07:43:05.087Z,21.07
2023-05-21T07:45:31.703Z,21.04
2023-05-21T07:47:58.441Z,21.04
2023-05-21T07:50:25.724Z,21.05
2023-05-21T07:52:52.377Z,21.08
2023-05-21T07:55:24.589Z,21.17
2023-05-21T07:57:54.676Z,21.13
2023-05-21T08:00:23.715Z,21.08
2023-05-21T08:02:50.502Z,21.09
2023-05-21T08:05:17.197Z,21.09
2023-05-21T08:07:53.003Z,21.09
2023-05-21T08:10:23.044Z,21.13
2023-05-21T08:12:49.645Z,21.14
2023-05-21T08:15:16.247Z,21.13
2023-05-21T08:17:42.876Z,21.12
2023-05-21T08:20:10.367Z,21.12
2023-05-21T08:22:40.055Z,21.15
2023-05-21T08:25:11.229Z,21.14
2023-05-21T08:27:38.226Z,21.12
2023-05-21T08:30:05.923Z,21.17
2023-05-21T08:32:32.542Z,21.20
2023-05-21T08:35:00.753Z,21.21
2023-05-21T08:37:27.385Z,21.25
2023-05-21T08:39:53.984Z,21.23
2023-05-21T08:42:39.558Z,21.28
2023-05-21T08:45:12.259Z,21.36
2023-05-21T08:47:42.069Z,21.38
2023-05-21T08:50:13.546Z,21.38
2023-05-21T08:52:40.977Z,21.42
2023-05-21T08:55:12.479Z,21.44
2023-05-21T08:57:43.651Z,21.40
2023-05-21T09:00:11.879Z,21.45
2023-05-21T09:02:40.929Z,21.42
2023-05-21T09:05:09.610Z,21.45
2023-05-21T09:07:44.573Z,21.46
2023-05-21T09:10:13.460Z,21.48
2023-05-21T09:12:40.439Z,21.47
2023-05-21T09:15:07.586Z,21.50
2023-05-21T09:17:34.272Z,21.52
2023-05-21T09:20:17.544Z,21.52
2023-05-21T09:22:45.625Z,21.55
2023-05-21T09:25:17.072Z,21.53
2023-05-21T09:27:43.875Z,21.51
2023-05-21T09:30:12.721Z,21.54
2023-05-21T09:32:40.127Z,21.54
2023-05-21T09:35:15.727Z,21.60
2023-05-21T09:37:45.642Z,21.61
2023-05-21T09:40:19.864Z,21.63
2023-05-21T09:42:49.983Z,21.68
2023-05-21T09:45:20.385Z,21.78
2023-05-21T09:47:48.497Z,21.71
2023-05-21T09:50:23.005Z,21.76
2023-05-21T09:52:52.792Z,21.85
2023-05-21T09:55:23.049Z,21.86
2023-05-21T09:57:51.019Z,21.83
2023-05-21T10:00:19.496Z,21.91
2023-05-21T10:02:47.512Z,21.86
2023-05-21T10:05:16.290Z,21.96
2023-05-21T10:08:04.452Z,21.93
2023-05-21T10:10:32.199Z,21.90
2023-05-21T10:12:59.473Z,21.94
2023-05-21T10:15:28.327Z,21.97
2023-05-21T10:17:55.812Z,21.98
2023-05-21T10:20:22.715Z,22.00
2023-05-21T10:22:50.710Z,22.01
2023-05-21T10:25:17.679Z,22.04
2023-05-21T10:27:46.744Z,22.06
2023-05-21T10:30:14.332Z,22.11
2023-05-21T10:32:42.226Z,22.11
2023-05-21T10:35:16.343Z,22.14
2023-05-21T10:37:47.180Z,22.18
2023-05-21T10:40:13.882Z,22.16
2023-05-21T10:42:57.327Z,22.16
2023-05-21T10:46:12.213Z,22.19
2023-05-21T10:49:17.131Z,22.21
2023-05-21T10:52:09.338Z,22.29
2023-05-21T10:54:49.816Z,22.29
2023-05-21T10:57:42.638Z,22.22
2023-05-21T11:00:11.266Z,22.29
2023-05-21T11:02:38.152Z,22.32
2023-05-21T11:05:05.334Z,22.35
2023-05-21T11:07:56.273Z,22.33
2023-05-21T11:10:40.780Z,22.32
2023-05-21T11:13:17.234Z,22.32
2023-05-21T11:15:58.823Z,22.34
2023-05-21T11:18:40.499Z,22.39
2023-05-21T11:21:12.021Z,22.36
2023-05-21T11:23:50.925Z,22.47
2023-05-21T11:26:18.695Z,22.45
2023-05-21T11:28:45.429Z,22.56
2023-05-21T11:31:29.296Z,22.58
2023-05-21T11:34:11.233Z,22.59
2023-05-21T11:36:38.732Z,22.65
2023-05-21T11:39:12.541Z,22.63
2023-05-21T11:42:03.122Z,22.72
2023-05-21T11:44:40.239Z,22.64
2023-05-21T11:47:08.622Z,22.68
2023-05-21T11:49:35.724Z,22.71
2023-05-21T11:52:03.511Z,22.72
2023-05-21T11:54:36.010Z,22.77
2023-05-21T11:57:11.443Z,22.73
2023-05-21T11:59:38.904Z,22.72
2023-05-21T12:02:05.598Z,22.66
2023-05-21T12:04:33.094Z,22.74
2023-05-21T12:07:02.627Z,22.78
2023-05-21T12:09:29.246Z,22.79
2023-05-21T12:11:55.915Z,22.84
2023-05-21T12:14:23.222Z,22.84
2023-05-21T12:16:50.076Z,22.88
2023-05-21T12:19:18.497Z,22.86
2023-05-21T12:21:45.331Z,22.86
2023-05-21T12:24:11.946Z,22.89
2023-05-21T12:26:39.386Z,22.94
2023-05-21T12:29:06.243Z,22.95
2023-05-21T12:31:33.015Z,22.96
2023-05-21T12:34:03.080Z,23.00
2023-05-21T12:36:31.847Z,22.96
2023-05-21T12:38:58.525Z,22.94
2023-05-21T12:41:25.225Z,22.99
2023-05-21T12:43:52.024Z,23.02
2023-05-21T12:46:19.010Z,23.02
2023-05-21T12:49:04.243Z,23.02
2023-05-21T12:51:42.632Z,23.05
2023-05-21T12:54:13.105Z,23.01
2023-05-21T12:56:46.741Z,23.04
2023-05-21T12:59:15.492Z,23.02
2023-05-21T13:01:42.189Z,23.05
2023-05-21T13:04:08.846Z,23.03
2023-05-21T13:06:44.371Z,23.02
2023-05-21T13:09:11.018Z,22.99
2023-05-21T13:11:37.604Z,23.01
2023-05-21T13:14:04.206Z,23.09
2023-05-21T13:16:30.962Z,23.14
2023-05-21T13:18:57.653Z,23.24
2023-05-21T13:21:24.276Z,23.21
2023-05-21T13:23:50.854Z,23.25
2023-05-21T13:26:17.474Z,23.33
2023-05-21T13:28:44.064Z,23.37
2023-05-21T13:31:12.166Z,23.39
2023-05-21T13:33:38.967Z,23.43
2023-05-21T13:36:05.827Z,23.42
2023-05-21T13:38:32.485Z,23.45
2023-05-21T13:40:59.123Z,23.49
2023-05-21T13:43:25.710Z,23.47
2023-05-21T13:45:52.614Z,23.50
2023-05-21T13:48:19.300Z,23.54
2023-05-21T13:50:46.102Z,23.60
2023-05-21T13:53:12.689Z,23.56
2023-05-21T13:55:39.349Z,23.58
2023-05-21T13:58:06.067Z,23.56
2023-05-21T14:00:32.657Z,23.60
2023-05-21T14:02:59.462Z,23.68
2023-05-21T14:05:27.000Z,23.60
2023-05-21T14:07:53.687Z,23.59
2023-05-21T14:10:20.681Z,23.60
2023-05-21T14:12:47.347Z,23.59
2023-05-21T14:15:14.017Z,23.61
2023-05-21T14:17:42.348Z,23.61
2023-05-21T14:20:09.951Z,23.68
2023-05-21T14:22:36.619Z,23.66
2023-05-21T14:25:03.478Z,23.63
2023-05-21T14:27:30.413Z,23.63
2023-05-21T14:29:57.030Z,23.67
2023-05-21T14:32:23.707Z,23.68
2023-05-21T14:34:50.526Z,23.73
2023-05-21T14:37:17.459Z,23.69
2023-05-21T14:39:44.200Z,23.68
2023-05-21T14:42:13.260Z,23.64
2023-05-21T14:44:39.862Z,23.64
2023-05-21T14:47:06.462Z,23.65
2023-05-21T14:49:33.178Z,23.64
2023-05-21T14:51:59.880Z,23.64
2023-05-21T14:54:26.495Z,23.65
2023-05-21T14:56:54.198Z,23.65
2023-05-21T14:59:20.931Z,23.67
2023-05-21T15:01:47.637Z,23.66
2023-05-21T15:04:14.486Z,23.66
2023-05-21T15:06:41.141Z,23.67
2023-05-21T15:09:07.817Z,23.68
2023-05-21T15:11:34.420Z,23.70
2023-05-21T15:14:01.015Z,23.67
2023-05-21T15:16:27.655Z,23.76
2023-05-21T15:18:54.426Z,23.75
2023-05-21T15:21:21.073Z,23.78
2023-05-21T15:23:47.959Z,23.76
2023-05-21T15:26:14.647Z,23.74
2023-05-21T15:28:41.386Z,23.77
2023-05-21T15:31:07.978Z,23.77
2023-05-21T15:33:34.697Z,23.77
2023-05-21T15:36:01.397Z,23.80
2023-05-21T15:38:28.078Z,23.79
2023-05-21T15:40:55.262Z,23.78
2023-05-21T15:43:21.890Z,23.78
2023-05-21T15:45:48.558Z,23.79
2023-05-21T15:48:15.246Z,23.80
2023-05-21T15:50:41.906Z,23.82
2023-05-21T15:53:10.679Z,23.83
2023-05-21T15:55:37.489Z,23.84
2023-05-21T15:58:05.204Z,23.85
2023-05-21T16:00:31.868Z,23.86
2023-05-21T16:02:58.526Z,23.86
2023-05-21T16:05:26.096Z,23.91
2023-05-21T16:07:52.668Z,23.90
2023-05-21T16:10:19.299Z,23.87
2023-05-21T16:12:45.883Z,23.93
2023-05-21T16:15:12.508Z,23.94
2023-05-21T16:17:39.123Z,23.93
2023-05-21T16:20:07.542Z,23.90
2023-05-21T16:22:34.133Z,23.90
2023-05-21T16:25:00.788Z,23.94
2023-05-21T16:27:27.440Z,23.92
2023-05-21T16:29:54.103Z,23.99
2023-05-21T16:32:22.084Z,23.97
2023-05-21T16:34:48.824Z,23.97
2023-05-21T16:37:15.492Z,23.98
2023-05-21T16:39:42.093Z,24.01
2023-05-21T16:42:08.711Z,24.03
2023-05-21T16:44:37.035Z,24.07
2023-05-21T16:47:04.402Z,24.07
2023-05-21T16:49:31.019Z,24.07
2023-05-21T16:51:57.749Z,24.09
2023-05-21T16:54:24.396Z,24.12
2023-05-21T16:56:50.987Z,24.14
2023-05-21T16:59:17.599Z,24.18
2023-05-21T17:01:44.212Z,24.21
2023-05-21T17:04:11.129Z,24.19
2023-05-21T17:06:37.755Z,24.22
2023-05-21T17:09:04.344Z,24.24
2023-05-21T17:11:31.001Z,24.26
2023-05-21T17:13:57.626Z,24.30
2023-05-21T17:16:25.168Z,24.31
2023-05-21T17:18:51.908Z,24.29
2023-05-21T17:21:21.817Z,24.30
2023-05-21T17:23:48.395Z,24.26
2023-05-21T17:26:15.215Z,24.25
2023-05-21T17:28:41.812Z,24.23
2023-05-21T17:31:08.584Z,24.27
2023-05-21T17:33:36.366Z,24.21
2023-05-21T17:36:09.671Z,24.20
2023-05-21T17:38:36.095Z,24.20
2023-05-21T17:41:02.892Z,24.31
2023-05-21T17:43:31.835Z,24.27
2023-05-21T17:45:58.538Z,24.26
2023-05-21T17:48:25.186Z,24.21
2023-05-21T17:50:51.789Z,24.28
2023-05-21T17:53:18.444Z,24.24
2023-05-21T17:55:45.048Z,24.26
2023-05-21T17:58:11.699Z,24.25
2023-05-21T18:00:38.370Z,24.26
2023-05-21T18:03:05.257Z,24.29
2023-05-21T18:05:31.908Z,24.30
2023-05-21T18:08:01.117Z,24.29
2023-05-21T18:10:27.800Z,24.29
2023-05-21T18:12:54.394Z,24.29
2023-05-21T18:15:21.015Z,24.34
2023-05-21T18:17:47.968Z,24.32
2023-05-21T18:20:15.043Z,24.35
2023-05-21T18:22:41.755Z,24.34
2023-05-21T18:25:09.068Z,24.37
2023-05-21T18:27:35.891Z,24.36
2023-05-21T18:30:05.111Z,24.36
2023-05-21T18:32:33.035Z,24.38
2023-05-21T18:34:59.713Z,24.36
2023-05-21T18:37:29.507Z,24.29
2023-05-21T18:39:56.130Z,24.31
2023-05-21T18:42:22.713Z,24.38
2023-05-21T18:44:51.239Z,24.37
2023-05-21T18:47:17.882Z,24.35
2023-05-21T18:49:44.472Z,24.37
2023-05-21T18:52:11.062Z,24.32
2023-05-21T18:54:37.709Z,24.34
2023-05-21T18:57:04.429Z,24.25
2023-05-21T18:59:31.431Z,24.33
2023-05-21T19:01:58.153Z,24.29
2023-05-21T19:04:25.166Z,24.23
2023-05-21T19:06:51.747Z,24.29
2023-05-21T19:09:18.321Z,24.28
2023-05-21T19:11:47.204Z,24.25
2023-05-21T19:14:13.842Z,24.20
2023-05-21T19:16:40.682Z,24.26
2023-05-21T19:19:07.485Z,24.18
2023-05-21T19:21:34.109Z,24.17
2023-05-21T19:24:02.995Z,24.20
2023-05-21T19:26:30.823Z,24.15
2023-05-21T19:28:57.468Z,24.16
2023-05-21T19:31:25.262Z,24.12
2023-05-21T19:33:52.937Z,24.08
2023-05-21T19:36:21.564Z,24.10
2023-05-21T19:38:49.366Z,24.06
2023-05-21T19:41:19.955Z,24.03
2023-05-21T19:43:46.566Z,23.97
2023-05-21T19:46:14.368Z,24.01
2023-05-21T19:48:42.721Z,23.99
2023-05-21T19:51:09.313Z,23.98
2023-05-21T19:53:36.176Z,24.01
2023-05-21T19:56:02.836Z,23.98
2023-05-21T19:58:30.401Z,23.95
2023-05-21T20:00:59.236Z,23.99
2023-05-21T20:03:27.307Z,23.92
2023-05-21T20:05:54.237Z,23.92
2023-05-21T20:08:21.198Z,23.97
2023-05-21T20:10:50.523Z,23.91
2023-05-21T20:13:18.182Z,23.93
2023-05-21T20:15:45.659Z,23.83
2023-05-21T20:18:12.801Z,23.88
2023-05-21T20:20:41.223Z,23.85
2023-05-21T20:23:08.287Z,23.86
2023-05-21T20:25:34.891Z,23.84
2023-05-21T20:28:02.664Z,23.82
2023-05-21T20:30:32.965Z,23.78
2023-05-21T20:33:04.693Z,23.84
2023-05-21T20:35:31.353Z,23.80
2023-05-21T20:38:02.182Z,23.76
2023-05-21T20:40:28.873Z,23.80
2023-05-21T20:42:55.470Z,23.75
2023-05-21T20:45:22.104Z,23.76
2023-05-21T20:47:49.920Z,23.72
2023-05-21T20:50:17.974Z,23.67
2023-05-21T20:52:47.133Z,23.69
2023-05-21T20:55:14.775Z,23.70
2023-05-21T20:57:41.626Z,23.63
2023-05-21T21:00:10.647Z,23.67
2023-05-21T21:02:41.525Z,23.69
2023-05-21T21:05:10.446Z,23.61
2023-05-21T21:07:37.724Z,23.62
2023-05-21T21:10:05.164Z,23.62
2023-05-21T21:12:31.770Z,23.62
2023-05-21T21:14:58.416Z,23.61
2023-05-21T21:17:25.047Z,23.62
2023-05-21T21:19:51.668Z,23.59
2023-05-21T21:22:18.565Z,23.61
2023-05-21T21:24:45.606Z,23.57
2023-05-21T21:27:12.349Z,23.61
2023-05-21T21:29:39.009Z,23.59
2023-05-21T21:32:06.149Z,23.56
2023-05-21T21:34:32.825Z,23.55
2023-05-21T21:37:11.555Z,23.63
2023-05-21T21:39:38.221Z,23.65
2023-05-21T21:42:05.081Z,23.56
2023-05-21T21:44:31.710Z,23.50
2023-05-21T21:47:03.884Z,23.46
2023-05-21T21:49:30.496Z,23.50
2023-05-21T21:52:00.008Z,23.52
2023-05-21T21:54:31.801Z,23.49
2023-05-21T21:57:01.515Z,23.50
2023-05-21T21:59:28.158Z,23.54
2023-05-21T22:01:54.841Z,23.48
2023-05-21T22:04:21.448Z,23.47
2023-05-21T22:06:49.689Z,23.50
2023-05-21T22:09:17.559Z,23.47
2023-05-21T22:11:44.224Z,23.51
2023-05-21T22:14:11.649Z,23.44
2023-05-21T22:16:38.372Z,23.46
2023-05-21T22:19:05.051Z,23.47
2023-05-21T22:21:33.135Z,23.44
2023-05-21T22:24:00.198Z,23.39
2023-05-21T22:26:26.793Z,23.46
2023-05-21T22:28:53.380Z,23.49
2023-05-21T22:31:20.052Z,23.39
2023-05-21T22:33:49.122Z,23.44
2023-05-21T22:36:18.354Z,23.32
2023-05-21T22:38:44.970Z,23.37
2023-05-21T22:41:11.785Z,23.42
2023-05-21T22:43:38.418Z,23.41
2023-05-21T22:46:05.127Z,23.35
2023-05-21T22:48:31.744Z,23.42
2023-05-21T22:50:58.428Z,23.38
2023-05-21T22:53:25.763Z,23.36
2023-05-21T22:55:52.390Z,23.47
2023-05-21T22:58:19.267Z,23.40
2023-05-21T23:00:47.360Z,23.41
2023-05-21T23:03:14.076Z,23.37
2023-05-21T23:05:40.933Z,23.37
2023-05-21T23:08:07.844Z,23.37
2023-05-21T23:10:35.482Z,23.35
2023-05-21T23:13:02.151Z,23.31
2023-05-21T23:15:29.794Z,23.34
2023-05-21T23:18:09.081Z,23.34
2023-05-21T23:20:37.025Z,23.33
2023-05-21T23:23:06.557Z,23.29
2023-05-21T23:25:34.091Z,23.30
2023-05-21T23:28:01.472Z,23.32
2023-05-21T23:30:28.159Z,23.26
2023-05-21T23:32:54.813Z,23.28
2023-05-21T23:35:21.446Z,23.28
2023-05-21T23:37:48.023Z,23.31
2023-05-21T23:40:14.724Z,23.20
2023-05-21T23:42:41.385Z,23.27
2023-05-21T23:45:08.122Z,23.26
2023-05-21T23:47:37.720Z,23.19
2023-05-21T23:50:09.231Z,23.24
2023-05-21T23:52:41.959Z,23.24
2023-05-21T23:55:09.911Z,23.30
2023-05-21T23:57:36.493Z,23.30
